الصفحة الرئيسية
METAR-TAF:

METAR-TAF

مطار :

موروني, جزر القمر

مطار الأمير سعيد إبراهيم الدولي

دائرة عرض: 11-32S, خط طول: 043-16E, ارتفاع: 29 متر

مراقبة الطقس الحالي

تاريخ ووقت الإصدار 7ساعات و 2 دقيقة قبل الساعة 20:00UTC
ريح 3 عقدة من الجنوب
درجة الحرارة 27°درجة مئوية
الرطوبة 79%
ضغط 1012 hPa
الرؤية 10 كم أو أكثر
غيوم قليلة على ارتفاع 2000 قدم

METAR: FMCH 212000Z 17003KT 9999 FEW020 27/23 Q1012 NOSIG

زمن: 06:02 (03:02 UTC)

توقعات

تاريخ ووقت الإصدار 10ساعات و 2 دقيقة قبل الساعة 17:00UTC
التوقعات صالحة من21 الساعة 18 UTC إلى 22 الساعة 24 UTC
ريح 3 عقدة من الشرق
الرؤية 10 كم أو أكثر
غيوم قليلة على ارتفاع 2000 قدم, مزنة ركامية.
نظرية الاحتمالات 30% :
مؤقت
من 21 الساعة 18 UTC إلى 22 الساعة 02 UTC
الرؤية: 4000 متر
عاصفة رعدية, زخات من المطر
أصبح
من 22 الساعة 05 UTC إلى 22 الساعة 07 UTC
ريح 10 عقدة من الجنوب الغربي
مؤقت
من 22 الساعة 06 UTC إلى 22 الساعة 14 UTC
الرؤية: 3000 متر
عاصفة رعدية, مطر, زخات من المطر

TAF: FMCH 211700Z 2118/2224 10003KT 9999 FEW020CB PROB30 TEMPO 2118/2202 4000 TS SHRA BECMG 2205/2207 22010KT TEMPO 2206/2214 3000 TSRA SHRA

أرصاد الطقس والتوقعات من أكثر من 4000 مطار (تقارير الطقس للمطار METAR والتنبؤ بالطقس بالمطارTAF).

المحطات المتاحة هي النقط الصفراء والحمراء على الخريطة.

حرك المؤشر فوق النقطة لمعرفة اسم المحطة.

ثم انقر لمعرفة أرصاد وتوقعات الطقس.

لتغيير الخارطة: اضغط على الأزرار الخضراء مع رمز الصليب الأسود للتكبير. على الزر الأخضر مع شرطة للتصغير، أو على الأسهم الخضراء للخرائط المجاورة.


METAR-TAF: